^^
Saratoga-Weather Station Historical Data
Daily Summary for August 29, 2020 Units:  English    Metric   Both
Daily Weekly Monthly Yearly Custom
  High: Low: Average:
Temperature: 72.3 °F 57.6 °F 64.6 °F
Dew Point: 59.9 °F 48 °F 53.8 °F
Humidity: 92% 44% 70%
Wind Speed: 14.1mph 0mph 3.2mph
Wind Gust: 18mph - -
Wind- - WSW
Pressure: 30 in 29.9 in -
Precipitation: 0 in    
Historical Graphs
 
 
Tabular Data for August 29, 2020
Time Temperature Dew Point Pressure Wind Wind Speed Wind Gust Humidity Rainfall Rate (Hourly) solar
00:00 59.5 °F 55.4 °F 30 in South 2 mph 4 mph 86% 0 in 0 W/m2
00:05 59.4 °F 55.2 °F 30 in Calm   1 mph 86% 0 in 0 W/m2
00:10 59.4 °F 55.4 °F 30 in Calm   3 mph 87% 0 in 0 W/m2
00:15 59.2 °F 55.4 °F 30 in Calm   1 mph 87% 0 in 0 W/m2
00:20 59 °F 55.2 °F 30 in NNW 0.9 mph 2 mph 87% 0 in 0 W/m2
00:26 58.8 °F 55.2 °F 30 in Calm   1 mph 88% 0 in 0 W/m2
00:31 58.8 °F 55.2 °F 30 in NNE 2 mph 4 mph 88% 0 in 0 W/m2
00:36 58.8 °F 55.2 °F 30 in NNW 0.9 mph 1 mph 88% 0 in 0 W/m2
00:41 58.8 °F 55.2 °F 30 in West 2 mph 4 mph 88% 0 in 0 W/m2
00:46 58.6 °F 55 °F 30 in Calm   2 mph 88% 0 in 0 W/m2
00:51 58.6 °F 55 °F 30 in NW 2 mph 6 mph 88% 0 in 0 W/m2
00:56 58.6 °F 55.4 °F 30 in North 2 mph 6 mph 89% 0 in 0 W/m2
01:01 58.6 °F 55.4 °F 30 in NNE 2 mph 3 mph 89% 0 in 0 W/m2
01:06 58.6 °F 55 °F 30 in Calm   5 mph 88% 0 in 0 W/m2
01:11 58.6 °F 55.4 °F 30 in NNW 2 mph 3 mph 89% 0 in 0 W/m2
01:16 58.6 °F 55.4 °F 30 in Calm   1 mph 89% 0 in 0 W/m2
01:21 58.5 °F 55.2 °F 30 in Calm   1 mph 89% 0 in 0 W/m2
01:31 58.5 °F 55.2 °F 30 in WNW 0.9 mph 3 mph 89% 0 in 0 W/m2
01:37 58.5 °F 55.2 °F 30 in SSE 4 mph 4 mph 89% 0 in 0 W/m2
01:42 58.3 °F 55 °F 30 in Calm   1 mph 89% 0 in 0 W/m2
01:47 58.3 °F 55.4 °F 30 in Calm   3 mph 90% 0 in 0 W/m2
01:52 58.3 °F 55.4 °F 30 in SSE 0.9 mph 3 mph 90% 0 in 0 W/m2
01:57 58.1 °F 55.2 °F 30 in ESE 2 mph 2 mph 90% 0 in 0 W/m2
02:02 58.1 °F 55.2 °F 30 in Calm   2 mph 90% 0 in 0 W/m2
02:07 57.9 °F 55 °F 30 in East 2 mph 2 mph 90% 0 in 0 W/m2
02:12 57.9 °F 55 °F 29.9 in Calm     90% 0 in 0 W/m2
02:17 57.7 °F 55.2 °F 30 in ENE 2 mph 2 mph 91% 0 in 0 W/m2
02:22 57.7 °F 55.2 °F 30 in ENE 2 mph 3 mph 91% 0 in 0 W/m2
02:27 57.7 °F 55.2 °F 29.9 in ENE 2 mph 2 mph 91% 0 in 0 W/m2
02:32 57.7 °F 55.2 °F 29.9 in East 0.9 mph 1 mph 91% 0 in 0 W/m2
02:37 57.6 °F 55 °F 29.9 in Calm   2 mph 91% 0 in 0 W/m2
02:42 57.6 °F 55 °F 29.9 in Calm   1 mph 91% 0 in 0 W/m2
02:47 57.6 °F 55 °F 29.9 in East 0.9 mph 1 mph 91% 0 in 0 W/m2
02:52 57.6 °F 55 °F 29.9 in Calm   1 mph 91% 0 in 0 W/m2
02:57 57.6 °F 55.2 °F 29.9 in Calm   2 mph 92% 0 in 0 W/m2
03:02 57.6 °F 55.2 °F 29.9 in NW 0.9 mph 1 mph 92% 0 in 0 W/m2
03:07 57.7 °F 55.4 °F 30 in Calm   1 mph 92% 0 in 0 W/m2
03:12 57.7 °F 55.4 °F 30 in NW 0.9 mph 2 mph 92% 0 in 0 W/m2
03:17 57.9 °F 55.2 °F 29.9 in NW 2 mph 3 mph 91% 0 in 0 W/m2
03:22 57.9 °F 55.2 °F 29.9 in West 4 mph 4 mph 91% 0 in 0 W/m2
03:27 57.9 °F 55.2 °F 29.9 in Calm   1 mph 91% 0 in 0 W/m2
03:32 57.9 °F 55.2 °F 29.9 in NE 2 mph 3 mph 91% 0 in 0 W/m2
03:37 57.9 °F 55.2 °F 29.9 in Calm   3 mph 91% 0 in 0 W/m2
03:42 57.9 °F 55.6 °F 29.9 in NNW 0.9 mph 2 mph 92% 0 in 0 W/m2
03:47 58.1 °F 55.4 °F 29.9 in Calm   2 mph 91% 0 in 0 W/m2
03:53 58.1 °F 55.4 °F 29.9 in WNW 0.9 mph 3 mph 91% 0 in 0 W/m2
03:58 58.3 °F 55.9 °F 29.9 in NNW 0.9 mph 3 mph 92% 0 in 0 W/m2
04:03 58.3 °F 55.6 °F 29.9 in WNW 2 mph 2 mph 91% 0 in 0 W/m2
04:08 58.3 °F 55.6 °F 29.9 in Calm   3 mph 91% 0 in 0 W/m2
04:13 58.3 °F 55.6 °F 29.9 in SW 4 mph 5 mph 91% 0 in 0 W/m2
04:18 58.3 °F 55.6 °F 29.9 in Calm   1 mph 91% 0 in 0 W/m2
04:23 58.3 °F 55.6 °F 29.9 in SSE 0.9 mph 2 mph 91% 0 in 0 W/m2
04:28 58.3 °F 55.6 °F 29.9 in Calm     91% 0 in 0 W/m2
04:33 58.3 °F 55.6 °F 29.9 in SSW 0.9 mph 2 mph 91% 0 in 0 W/m2
04:38 58.3 °F 55.6 °F 29.9 in Calm   2 mph 91% 0 in 0 W/m2
04:43 58.3 °F 55.6 °F 29.9 in West 2.9 mph 3 mph 91% 0 in 0 W/m2
04:48 58.3 °F 55.6 °F 29.9 in Calm   1 mph 91% 0 in 0 W/m2
04:53 58.5 °F 55.8 °F 29.9 in North 0.9 mph 3 mph 91% 0 in 0 W/m2
04:58 58.5 °F 55.8 °F 29.9 in Calm   2 mph 91% 0 in 0 W/m2
05:03 58.5 °F 55.8 °F 29.9 in North 0.9 mph 2 mph 91% 0 in 0 W/m2
05:08 58.6 °F 55.9 °F 29.9 in North 2 mph 3 mph 91% 0 in 0 W/m2
05:13 58.6 °F 55.9 °F 29.9 in NNW 0.9 mph 1 mph 91% 0 in 0 W/m2
05:18 58.6 °F 55.9 °F 29.9 in Calm   1 mph 91% 0 in 0 W/m2
05:23 58.6 °F 55.9 °F 29.9 in Calm   3 mph 91% 0 in 0 W/m2
05:33 58.6 °F 55.9 °F 29.9 in WSW 2 mph 2 mph 91% 0 in 0 W/m2
05:38 58.5 °F 55.8 °F 29.9 in NNE 0.9 mph 2 mph 91% 0 in 0 W/m2
05:43 58.5 °F 55.8 °F 29.9 in Calm     91% 0 in 0 W/m2
05:48 58.5 °F 55.8 °F 29.9 in Calm   2 mph 91% 0 in 0 W/m2
05:53 58.3 °F 55.6 °F 29.9 in ESE 2 mph 2 mph 91% 0 in 0 W/m2
05:58 58.3 °F 55.9 °F 29.9 in ENE 0.9 mph 3 mph 92% 0 in 0 W/m2
06:03 58.3 °F 55.9 °F 29.9 in Calm   1 mph 92% 0 in 7 W/m2
06:08 58.3 °F 55.9 °F 29.9 in Calm     92% 0 in 11 W/m2
06:13 58.3 °F 55.9 °F 29.9 in Calm   2 mph 92% 0 in 14 W/m2
06:18 58.5 °F 56.1 °F 29.9 in SE 2 mph 2 mph 92% 0 in 16 W/m2
06:23 58.5 °F 56.1 °F 29.9 in Calm     92% 0 in 18 W/m2
06:28 58.6 °F 56.3 °F 29.9 in SW 0.9 mph 1 mph 92% 0 in 21 W/m2
06:33 58.6 °F 56.3 °F 29.9 in WNW 2 mph 2 mph 92% 0 in 25 W/m2
06:38 58.8 °F 56.5 °F 29.9 in Calm   1 mph 92% 0 in 21 W/m2
06:43 59 °F 56.7 °F 29.9 in WSW 2 mph 3 mph 92% 0 in 21 W/m2
06:48 59.2 °F 56.5 °F 29.9 in NW 2 mph 2 mph 91% 0 in 25 W/m2
06:53 59.2 °F 56.5 °F 29.9 in Calm   4 mph 91% 0 in 35 W/m2
06:58 59.4 °F 56.7 °F 29.9 in NNE 0.9 mph 2 mph 91% 0 in 32 W/m2
07:03 59.4 °F 56.7 °F 29.9 in Calm   4 mph 91% 0 in 25 W/m2
07:08 59.5 °F 56.8 °F 29.9 in WSW 0.9 mph 2 mph 91% 0 in 28 W/m2
07:13 59.5 °F 56.8 °F 29.9 in West 0.9 mph 2 mph 91% 0 in 53 W/m2
07:18 59.5 °F 56.7 °F 29.9 in North 0.9 mph 2 mph 90% 0 in 63 W/m2
07:23 59.7 °F 56.8 °F 29.9 in NE 0.9 mph 4 mph 90% 0 in 70 W/m2
07:28 59.9 °F 57 °F 29.9 in North 2 mph 2 mph 90% 0 in 69 W/m2
07:33 59.9 °F 57 °F 29.9 in NNW 2 mph 3 mph 90% 0 in 86 W/m2
07:38 60.1 °F 57.2 °F 29.9 in NE 0.9 mph 4 mph 90% 0 in 81 W/m2
07:43 60.1 °F 57.2 °F 29.9 in Calm   2 mph 90% 0 in 56 W/m2
07:48 60.3 °F 57.4 °F 29.9 in NNE 0.9 mph 4 mph 90% 0 in 260 W/m2
07:53 60.4 °F 57.6 °F 29.9 in NW 2 mph 7 mph 90% 0 in 255 W/m2
07:58 60.8 °F 57.6 °F 29.9 in North 4.9 mph 5 mph 89% 0 in 186 W/m2
08:03 61.2 °F 57.6 °F 29.9 in NNW 2 mph 3 mph 88% 0 in 156 W/m2
08:08 61.2 °F 57.2 °F 29.9 in West 2.9 mph 8 mph 87% 0 in 197 W/m2
08:13 61.3 °F 57.4 °F 29.9 in West 6 mph 6 mph 87% 0 in 160 W/m2
08:18 61.3 °F 57.4 °F 29.9 in West 2.9 mph 7 mph 87% 0 in 160 W/m2
08:23 61.5 °F 57.6 °F 29.9 in SSW 2.9 mph 6 mph 87% 0 in 236 W/m2
08:28 61.7 °F 57.7 °F 29.9 in North 0.9 mph 7 mph 87% 0 in 149 W/m2
08:33 62.1 °F 57.7 °F 29.9 in NW 0.9 mph 3 mph 86% 0 in 236 W/m2
08:38 62.4 °F 58.1 °F 29.9 in WNW 4 mph 4 mph 86% 0 in 130 W/m2
08:43 62.4 °F 57.9 °F 29.9 in SW 0.9 mph 6 mph 85% 0 in 120 W/m2
08:48 62.4 °F 57.9 °F 29.9 in WSW 2.9 mph 7 mph 85% 0 in 181 W/m2
08:53 62.4 °F 57.9 °F 29.9 in NW 4.9 mph 5 mph 85% 0 in 186 W/m2
08:58 63 °F 58.5 °F 29.9 in West 6 mph 6 mph 85% 0 in 216 W/m2
09:03 63.1 °F 58.3 °F 29.9 in WNW 4.9 mph 5 mph 84% 0 in 125 W/m2
09:08 63.1 °F 57.9 °F 29.9 in NW 2 mph 3 mph 83% 0 in 58 W/m2
09:13 63.1 °F 57.9 °F 29.9 in NW 2 mph 5 mph 83% 0 in 104 W/m2
09:18 62.8 °F 57.9 °F 29.9 in NNE 2.9 mph 6 mph 84% 0 in 46 W/m2
09:23 62.4 °F 58.1 °F 29.9 in NNW 0.9 mph 2 mph 86% 0 in 127 W/m2
09:28 63 °F 59.4 °F 29.9 in NNW 0.9 mph 2 mph 88% 0 in 568 W/m2
09:38 64 °F 59.7 °F 29.9 in WNW 2 mph 4 mph 86% 0 in 197 W/m2
09:43 64.8 °F 59.9 °F 29.9 in West 2.9 mph 9 mph 84% 0 in 666 W/m2
09:48 64.9 °F 59.7 °F 29.9 in WNW 4.9 mph 7 mph 83% 0 in 501 W/m2
09:53 64.9 °F 59.4 °F 29.9 in WNW 0.9 mph 6 mph 82% 0 in 172 W/m2
09:58 64.8 °F 58.8 °F 29.9 in West 2.9 mph 6 mph 81% 0 in 86 W/m2
10:03 64.2 °F 58.3 °F 29.9 in WNW 2 mph 6 mph 81% 0 in 656 W/m2
10:08 64.6 °F 59 °F 29.9 in NW 4 mph 7 mph 82% 0 in 712 W/m2
10:13 65.3 °F 58.6 °F 29.9 in NNW 0.9 mph 11 mph 79% 0 in 260 W/m2
10:18 65.8 °F 59.2 °F 29.9 in WSW 2.9 mph 6 mph 79% 0 in 246 W/m2
10:23 65.7 °F 58.3 °F 29.9 in WNW 4 mph 6 mph 77% 0 in 151 W/m2
10:28 64.9 °F 57.6 °F 29.9 in WSW 4 mph 4 mph 77% 0 in 88 W/m2
10:33 64.6 °F 57.6 °F 29.9 in WSW 0.9 mph 6 mph 78% 0 in 86 W/m2
10:38 64.9 °F 58.3 °F 29.9 in WNW 2 mph 3 mph 79% 0 in 805 W/m2
10:43 65.7 °F 58.3 °F 29.9 in NNE 0.9 mph 5 mph 77% 0 in 921 W/m2
10:48 66.6 °F 58.1 °F 29.9 in WNW 2.9 mph 7 mph 74% 0 in 279 W/m2
10:53 67.3 °F 57.9 °F 29.9 in WSW 4.9 mph 11 mph 72% 0 in 756 W/m2
10:58 67.5 °F 57.7 °F 29.9 in NW 2 mph 6 mph 71% 0 in 816 W/m2
11:03 68 °F 59 °F 29.9 in WSW 6 mph 11 mph 73% 0 in 895 W/m2
11:08 67.6 °F 57.9 °F 29.9 in WNW 11 mph 12 mph 71% 0 in 72 W/m2
11:13 66.6 °F 57.6 °F 29.9 in West 8.9 mph 9 mph 73% 0 in 816 W/m2
11:18 66.9 °F 57.9 °F 29.9 in West 4 mph 5 mph 73% 0 in 856 W/m2
11:23 67.8 °F 58.1 °F 29.9 in West 6.9 mph 11 mph 71% 0 in 846 W/m2
11:29 68 °F 57 °F 29.9 in WSW 2.9 mph 7 mph 68% 0 in 926 W/m2
11:34 68 °F 56.7 °F 29.9 in SW 6 mph 7 mph 67% 0 in 165 W/m2
11:39 68.2 °F 56.3 °F 29.9 in WNW 2.9 mph 7 mph 66% 0 in 886 W/m2
11:44 68.2 °F 56.3 °F 29.9 in North 4 mph 7 mph 66% 0 in 1046 W/m2
11:49 68.4 °F 56.1 °F 29.9 in WSW 6.9 mph 8 mph 65% 0 in 1109 W/m2
11:54 68.4 °F 56.5 °F 29.9 in SW 4 mph 7 mph 66% 0 in 258 W/m2
11:59 68.2 °F 56.8 °F 29.9 in WSW 2 mph 10 mph 67% 0 in 942 W/m2
12:04 68.4 °F 57.4 °F 29.9 in NE 2.9 mph 4 mph 68% 0 in 874 W/m2
12:09 69.3 °F 57.4 °F 29.9 in West 2.9 mph 6 mph 66% 0 in 847 W/m2
12:14 69.3 °F 56.1 °F 29.9 in NW 8.1 mph 12 mph 63% 0 in 898 W/m2
12:19 69.3 °F 55.8 °F 29.9 in West 6 mph 7 mph 62% 0 in 1051 W/m2
12:24 68.7 °F 56.1 °F 29.9 in West 6 mph 12 mph 64% 0 in 162 W/m2
12:29 68.9 °F 55.8 °F 29.9 in WNW 8.9 mph 10 mph 63% 0 in 1051 W/m2
12:34 69.4 °F 56.3 °F 29.9 in WSW 4 mph 11 mph 63% 0 in 970 W/m2
12:39 70 °F 55.9 °F 29.9 in West 2.9 mph 9 mph 61% 0 in 1055 W/m2
12:44 70.5 °F 56.5 °F 29.9 in NW 4 mph 9 mph 61% 0 in 1056 W/m2
12:49 70.9 °F 55.8 °F 29.9 in WNW 4.9 mph 9 mph 59% 0 in 1025 W/m2
12:54 70.3 °F 55.8 °F 29.9 in West 8.9 mph 10 mph 60% 0 in 135 W/m2
12:59 69.6 °F 55.6 °F 29.9 in WSW 4.9 mph 11 mph 61% 0 in 937 W/m2
13:04 69.8 °F 55.2 °F 29.9 in SW 4 mph 5 mph 60% 0 in 1014 W/m2
13:09 70.2 °F 55.6 °F 29.9 in West 4 mph 9 mph 60% 0 in 1125 W/m2
13:14 70.3 °F 55.8 °F 29.9 in WNW 8.1 mph 16 mph 60% 0 in 984 W/m2
13:19 70.3 °F 54.9 °F 29.9 in SW 4.9 mph 10 mph 58% 0 in 947 W/m2
13:24 70.3 °F 54.9 °F 29.9 in WNW 4 mph 16 mph 58% 0 in 264 W/m2
13:29 70.2 °F 54.7 °F 29.9 in West 6.9 mph 9 mph 58% 0 in 132 W/m2
13:34 70.2 °F 54.7 °F 29.9 in WNW 6.9 mph 10 mph 58% 0 in 963 W/m2
13:39 71.1 °F 55.6 °F 29.9 in NNW 2.9 mph 10 mph 58% 0 in 947 W/m2
13:44 71.1 °F 55 °F 29.9 in WSW 6.9 mph 10 mph 57% 0 in 958 W/m2
13:49 71.1 °F 55 °F 29.9 in SW 6.9 mph 11 mph 57% 0 in 995 W/m2
13:54 71.2 °F 54.7 °F 29.9 in NNW 4.9 mph 10 mph 56% 0 in 942 W/m2
13:59 71.4 °F 54 °F 29.9 in North 2 mph 15 mph 54% 0 in 1005 W/m2
14:04 71.2 °F 54.3 °F 29.9 in NW 4.9 mph 10 mph 55% 0 in 976 W/m2
14:09 70.9 °F 53.4 °F 29.9 in West 8.1 mph 12 mph 54% 0 in 158 W/m2
14:14 70.9 °F 54 °F 29.9 in WSW 6.9 mph 10 mph 55% 0 in 947 W/m2
14:19 71.2 °F 53.8 °F 29.9 in WNW 12.1 mph 16 mph 54% 0 in 930 W/m2
14:24 71.6 °F 53.1 °F 29.9 in WNW 8.1 mph 10 mph 52% 0 in 1021 W/m2
14:29 71.8 °F 52.7 °F 29.9 in WNW 4.9 mph 11 mph 51% 0 in 279 W/m2
14:34 71.6 °F 52.5 °F 29.9 in WNW 13 mph 13 mph 51% 0 in 983 W/m2
14:39 71.2 °F 51.1 °F 29.9 in WNW 11 mph 14 mph 49% 0 in 933 W/m2
14:44 71.8 °F 52.2 °F 29.9 in WNW 11 mph 11 mph 50% 0 in 939 W/m2
14:49 72 °F 51.8 °F 29.9 in WNW 6.9 mph 11 mph 49% 0 in 969 W/m2
14:54 72.1 °F 52 °F 29.9 in West 6.9 mph 10 mph 49% 0 in 923 W/m2
14:59 71.8 °F 51.1 °F 29.9 in WNW 6.9 mph 16 mph 48% 0 in 926 W/m2
15:04 72 °F 51.8 °F 29.9 in WSW 4.9 mph 11 mph 49% 0 in 935 W/m2
15:09 72.1 °F 50.7 °F 29.9 in West 6.9 mph 15 mph 47% 0 in 954 W/m2
15:19 71.8 °F 51.1 °F 29.9 in SW 6.9 mph 12 mph 48% 0 in 951 W/m2
15:24 71.4 °F 50.7 °F 29.9 in West 4 mph 17 mph 48% 0 in 153 W/m2
15:29 71.2 °F 51.6 °F 29.9 in West 2.9 mph 11 mph 50% 0 in 241 W/m2
15:34 71.8 °F 51.1 °F 29.9 in NW 4 mph 7 mph 48% 0 in 870 W/m2
15:39 72 °F 50.7 °F 29.9 in West 8.1 mph 10 mph 47% 0 in 925 W/m2
15:44 71.8 °F 51.1 °F 29.9 in WSW 2.9 mph 9 mph 48% 0 in 230 W/m2
15:49 71.8 °F 51.1 °F 29.9 in WSW 2 mph 9 mph 48% 0 in 937 W/m2
15:54 71.4 °F 50.2 °F 29.9 in WSW 8.1 mph 11 mph 47% 0 in 921 W/m2
15:59 71.6 °F 49.6 °F 29.9 in West 8.9 mph 17 mph 46% 0 in 905 W/m2
16:04 71.6 °F 49.6 °F 29.9 in North 6 mph 10 mph 46% 0 in 842 W/m2
16:09 71.6 °F 49.6 °F 29.9 in WNW 6.9 mph 18 mph 46% 0 in 846 W/m2
16:14 71.4 °F 50.2 °F 29.9 in WNW 8.9 mph 9 mph 47% 0 in 853 W/m2
16:19 72 °F 50.7 °F 29.9 in WNW 6.9 mph 9 mph 47% 0 in 823 W/m2
16:24 72.1 °F 49.6 °F 29.9 in WNW 6.9 mph 8 mph 45% 0 in 860 W/m2
16:29 72.3 °F 50.4 °F 29.9 in SW 6.9 mph 10 mph 46% 0 in 828 W/m2
16:34 72.1 °F 49.6 °F 29.9 in WNW 4.9 mph 14 mph 45% 0 in 756 W/m2
16:39 72.3 °F 49.8 °F 29.9 in WSW 6.9 mph 7 mph 45% 0 in 833 W/m2
16:44 72.3 °F 50.4 °F 29.9 in West 2.9 mph 10 mph 46% 0 in 631 W/m2
16:49 72.3 °F 49.1 °F 29.9 in NNW 8.1 mph 11 mph 44% 0 in 770 W/m2
16:54 72 °F 49.5 °F 29.9 in WNW 4.9 mph 15 mph 45% 0 in 160 W/m2
16:59 71.4 °F 49.6 °F 29.9 in NW 6.9 mph 10 mph 46% 0 in 311 W/m2
17:04 70.9 °F 49.1 °F 29.9 in West 6 mph 15 mph 46% 0 in 209 W/m2
17:09 70.5 °F 49.3 °F 29.9 in West 4 mph 10 mph 47% 0 in 176 W/m2
17:14 71.2 °F 50.5 °F 29.9 in West 2.9 mph 10 mph 48% 0 in 717 W/m2
17:19 71.4 °F 50.2 °F 29.9 in West 13 mph 13 mph 47% 0 in 717 W/m2
17:24 71.8 °F 50.5 °F 29.9 in NW 4.9 mph 11 mph 47% 0 in 677 W/m2
17:34 71.2 °F 50.5 °F 29.9 in WNW 6.9 mph 12 mph 48% 0 in 703 W/m2
17:39 71.4 °F 50.7 °F 29.9 in West 8.1 mph 10 mph 48% 0 in 647 W/m2
17:44 72 °F 50.7 °F 29.9 in WSW 4 mph 9 mph 47% 0 in 631 W/m2
17:49 71.2 °F 50 °F 29.9 in NW 4 mph 7 mph 47% 0 in 162 W/m2
17:54 71.1 °F 51.4 °F 29.9 in West 6 mph 9 mph 50% 0 in 701 W/m2
17:59 71.4 °F 50.7 °F 29.9 in WNW 8.9 mph 10 mph 48% 0 in 622 W/m2
18:04 71.1 °F 50.4 °F 29.9 in WSW 14.1 mph 16 mph 48% 0 in 97 W/m2
18:09 70.3 °F 49.6 °F 29.9 in NW 2.9 mph 9 mph 48% 0 in 643 W/m2
18:14 70.9 °F 50.7 °F 29.9 in WNW 6 mph 6 mph 49% 0 in 589 W/m2
18:19 71.1 °F 50.4 °F 29.9 in NNW 6 mph 8 mph 48% 0 in 223 W/m2
18:24 70.7 °F 50 °F 29.9 in NW 2.9 mph 8 mph 48% 0 in 123 W/m2
18:29 70.3 °F 50.4 °F 29.9 in West 2.9 mph 6 mph 49% 0 in 153 W/m2
18:35 70.2 °F 49.6 °F 29.9 in WSW 4 mph 12 mph 48% 0 in 128 W/m2
18:40 69.8 °F 49.3 °F 29.9 in West 2.9 mph 7 mph 48% 0 in 77 W/m2
18:45 69.4 °F 50 °F 29.9 in WNW 6.9 mph 9 mph 50% 0 in 374 W/m2
18:50 69.3 °F 49.3 °F 29.9 in West 6.9 mph 9 mph 49% 0 in 234 W/m2
18:55 69.3 °F 49.8 °F 29.9 in SW 4 mph 9 mph 50% 0 in 148 W/m2
19:00 69.6 °F 50.2 °F 29.9 in West 2.9 mph 10 mph 50% 0 in 192 W/m2
19:05 69.4 °F 49.5 °F 29.9 in West 6.9 mph 9 mph 49% 0 in 62 W/m2
19:10 69.1 °F 49.1 °F 29.9 in WNW 2.9 mph 7 mph 49% 0 in 121 W/m2
19:15 69.4 °F 48.9 °F 29.9 in West 6.9 mph 11 mph 48% 0 in 355 W/m2
19:20 69.8 °F 49.3 °F 29.9 in West 2.9 mph 6 mph 48% 0 in 51 W/m2
19:25 69.6 °F 48.6 °F 29.9 in West 4 mph 11 mph 47% 0 in 54 W/m2
19:30 69.1 °F 48.6 °F 29.9 in WNW 2.9 mph 5 mph 48% 0 in 102 W/m2
19:35 69.1 °F 48.6 °F 29.9 in WNW 8.1 mph 10 mph 48% 0 in 322 W/m2
19:40 69.4 °F 48.9 °F 29.9 in WNW 4 mph 8 mph 48% 0 in 276 W/m2
19:45 69.8 °F 49.3 °F 29.9 in WSW 4 mph 10 mph 48% 0 in 199 W/m2
19:50 70 °F 50 °F 29.9 in West 6 mph 7 mph 49% 0 in 39 W/m2
19:55 69.3 °F 49.3 °F 29.9 in West 4 mph 7 mph 49% 0 in 67 W/m2
20:00 68.5 °F 48.6 °F 29.9 in West 2.9 mph 9 mph 49% 0 in 39 W/m2
20:05 68.5 °F 49.1 °F 29.9 in West 2.9 mph 7 mph 50% 0 in 181 W/m2
20:10 68.7 °F 48.7 °F 29.9 in West 4 mph 6 mph 49% 0 in 160 W/m2
20:15 69.1 °F 48.6 °F 29.9 in West 4 mph 8 mph 48% 0 in 146 W/m2
20:20 69.1 °F 48 °F 29.9 in WNW 8.9 mph 11 mph 47% 0 in 132 W/m2
20:25 68.9 °F 48.4 °F 29.9 in WSW 4.9 mph 7 mph 48% 0 in 118 W/m2
20:30 68.7 °F 48.7 °F 29.9 in West 2.9 mph 6 mph 49% 0 in 107 W/m2
20:35 68.5 °F 48.6 °F 29.9 in West 2.9 mph 6 mph 49% 0 in 88 W/m2
20:40 68.5 °F 49.1 °F 29.9 in WNW 2 mph 3 mph 50% 0 in 74 W/m2
20:45 68.5 °F 49.1 °F 29.9 in West 2 mph 6 mph 50% 0 in 70 W/m2
20:50 68.4 °F 48.9 °F 29.9 in West 2 mph 4 mph 50% 0 in 62 W/m2
20:55 67.8 °F 49.1 °F 29.9 in West 2 mph 5 mph 51% 0 in 54 W/m2
21:00 67.6 °F 49.5 °F 29.9 in West 2.9 mph 4 mph 52% 0 in 47 W/m2
21:05 67.3 °F 49.1 °F 29.9 in WSW 2.9 mph 4 mph 52% 0 in 39 W/m2
21:10 66.7 °F 49.1 °F 29.9 in West 2 mph 4 mph 53% 0 in 30 W/m2
21:15 66.4 °F 49.3 °F 29.9 in West 2 mph 4 mph 54% 0 in 18 W/m2
21:20 65.8 °F 49.3 °F 29.9 in WSW 2 mph 3 mph 55% 0 in 14 W/m2
21:25 65.3 °F 49.6 °F 29.9 in WSW 0.9 mph 1 mph 57% 0 in 12 W/m2
21:31 64.9 °F 49.3 °F 29.9 in WSW 0.9 mph 1 mph 57% 0 in 11 W/m2
21:36 64.6 °F 50 °F 29.9 in Calm   3 mph 59% 0 in 7 W/m2
21:41 64 °F 49.5 °F 29.9 in WSW 2 mph 3 mph 59% 0 in 5 W/m2
21:46 63.7 °F 49.5 °F 29.9 in WSW 0.9 mph 3 mph 60% 0 in 0 W/m2
21:51 63.3 °F 49.3 °F 29.9 in WNW 2 mph 4 mph 60% 0 in 0 W/m2
21:56 63.3 °F 49.6 °F 29.9 in West 0.9 mph 3 mph 61% 0 in 0 W/m2
22:01 63 °F 48.9 °F 29.9 in West 2 mph 2 mph 60% 0 in 0 W/m2
22:06 63 °F 49.3 °F 29.9 in West 0.9 mph 2 mph 61% 0 in 0 W/m2
22:12 63 °F 49.3 °F 29.9 in WNW 4 mph 4 mph 61% 0 in 0 W/m2
22:17 62.8 °F 49.1 °F 29.9 in WNW 4 mph 5 mph 61% 0 in 0 W/m2
22:22 62.8 °F 49.1 °F 29.9 in WSW 2 mph 3 mph 61% 0 in 0 W/m2
22:27 62.8 °F 49.1 °F 29.9 in WSW 2 mph 4 mph 61% 0 in 0 W/m2
22:32 62.6 °F 49.5 °F 29.9 in WNW 0.9 mph 3 mph 62% 0 in 0 W/m2
22:37 62.4 °F 49.3 °F 29.9 in WNW 2 mph 4 mph 62% 0 in 0 W/m2
22:42 62.4 °F 49.3 °F 29.9 in WSW 2 mph 6 mph 62% 0 in 0 W/m2
22:47 62.2 °F 49.1 °F 29.9 in WNW 2 mph 4 mph 62% 0 in 0 W/m2
22:52 62.2 °F 49.5 °F 29.9 in West 2 mph 6 mph 63% 0 in 0 W/m2
22:57 62.1 °F 49.3 °F 29.9 in West 0.9 mph 2 mph 63% 0 in 0 W/m2
23:03 61.9 °F 49.1 °F 29.9 in SW 0.9 mph 2 mph 63% 0 in 0 W/m2
23:08 61.5 °F 49.3 °F 29.9 in Calm   1 mph 64% 0 in 0 W/m2
23:13 61.2 °F 49.6 °F 29.9 in Calm     66% 0 in 0 W/m2
23:18 61 °F 50 °F 29.9 in Calm     67% 0 in 0 W/m2
23:23 60.6 °F 49.6 °F 29.9 in Calm     67% 0 in 0 W/m2
23:28 60.3 °F 49.6 °F 29.9 in Calm     68% 0 in 0 W/m2
23:33 59.7 °F 49.5 °F 29.9 in West 0.9 mph 2 mph 69% 0 in 0 W/m2
23:38 59.5 °F 48.9 °F 29.9 in Calm   1 mph 68% 0 in 0 W/m2
23:43 59.7 °F 49.1 °F 29.9 in WSW 0.9 mph 2 mph 68% 0 in 0 W/m2
23:48 59.7 °F 50 °F 29.9 in Calm   1 mph 70% 0 in 0 W/m2
23:53 59.4 °F 50 °F 29.9 in West 0.9 mph 1 mph 71% 0 in 0 W/m2
23:58 59.2 °F 50.2 °F 29.9 in Calm   1 mph 72% 0 in 0 W/m2
Juneau County Weather
Compliments of Weather Underground - 4 mb